sensor_id;sensor_type;location;lat;lon;timestamp;pressure;altitude;pressure_sealevel;temperature;humidity
45129;BME280;35512;56.312;101.728;2023-04-24T00:01:16;97333.84;;;-0.58;29.70
45129;BME280;35512;56.312;101.728;2023-04-24T00:03:45;97334.38;;;-0.51;29.44
45129;BME280;35512;56.312;101.728;2023-04-24T00:06:15;97334.09;;;-0.44;29.22
45129;BME280;35512;56.312;101.728;2023-04-24T00:08:45;97325.06;;;-0.38;29.15
45129;BME280;35512;56.312;101.728;2023-04-24T00:11:14;97326.63;;;-0.26;29.03
45129;BME280;35512;56.312;101.728;2023-04-24T00:13:43;97330.59;;;-0.19;28.64
45129;BME280;35512;56.312;101.728;2023-04-24T00:16:12;97326.63;;;-0.11;28.87
45129;BME280;35512;56.312;101.728;2023-04-24T00:18:41;97335.56;;;0.04;29.03
45129;BME280;35512;56.312;101.728;2023-04-24T00:21:10;97328.06;;;0.21;28.46
45129;BME280;35512;56.312;101.728;2023-04-24T00:23:39;97321.06;;;0.41;28.86
45129;BME280;35512;56.312;101.728;2023-04-24T00:26:08;97320.41;;;0.64;29.07
45129;BME280;35512;56.312;101.728;2023-04-24T00:28:37;97318.66;;;0.89;28.78
45129;BME280;35512;56.312;101.728;2023-04-24T00:31:05;97321.13;;;1.15;28.75
45129;BME280;35512;56.312;101.728;2023-04-24T00:33:34;97309.16;;;1.42;28.44
45129;BME280;35512;56.312;101.728;2023-04-24T00:36:03;97313.69;;;1.71;28.53
45129;BME280;35512;56.312;101.728;2023-04-24T00:38:33;97295.31;;;1.93;28.06
45129;BME280;35512;56.312;101.728;2023-04-24T00:41:03;97305.19;;;2.17;28.27
45129;BME280;35512;56.312;101.728;2023-04-24T00:43:32;97306.22;;;2.40;27.73
45129;BME280;35512;56.312;101.728;2023-04-24T00:46:01;97307.38;;;2.72;27.72
45129;BME280;35512;56.312;101.728;2023-04-24T00:48:31;97292.59;;;2.99;27.37
45129;BME280;35512;56.312;101.728;2023-04-24T00:51:00;97298.75;;;3.13;27.49
45129;BME280;35512;56.312;101.728;2023-04-24T00:53:29;97296.84;;;3.47;27.47
45129;BME280;35512;56.312;101.728;2023-04-24T00:55:58;97297.28;;;3.82;27.27
45129;BME280;35512;56.312;101.728;2023-04-24T00:58:29;97293.53;;;3.97;27.16
45129;BME280;35512;56.312;101.728;2023-04-24T01:01:00;97300.25;;;4.08;27.09
45129;BME280;35512;56.312;101.728;2023-04-24T01:03:36;97294.91;;;4.22;26.56
45129;BME280;35512;56.312;101.728;2023-04-24T01:06:06;97283.88;;;4.37;26.74
45129;BME280;35512;56.312;101.728;2023-04-24T01:08:36;97275.41;;;4.58;26.81
45129;BME280;35512;56.312;101.728;2023-04-24T01:11:05;97283.50;;;4.67;26.31
45129;BME280;35512;56.312;101.728;2023-04-24T01:13:34;97283.22;;;4.91;26.59
45129;BME280;35512;56.312;101.728;2023-04-24T01:16:03;97285.34;;;5.25;26.44
45129;BME280;35512;56.312;101.728;2023-04-24T01:18:34;97270.91;;;6.16;25.71
45129;BME280;35512;56.312;101.728;2023-04-24T01:21:04;97268.63;;;7.58;24.98
45129;BME280;35512;56.312;101.728;2023-04-24T01:23:34;97267.44;;;8.66;24.42
45129;BME280;35512;56.312;101.728;2023-04-24T01:26:04;97267.34;;;9.88;24.76
45129;BME280;35512;56.312;101.728;2023-04-24T01:28:33;97265.78;;;11.05;24.67
45129;BME280;35512;56.312;101.728;2023-04-24T01:31:02;97256.25;;;12.00;24.30
45129;BME280;35512;56.312;101.728;2023-04-24T01:33:31;97254.88;;;13.00;24.67
45129;BME280;35512;56.312;101.728;2023-04-24T01:36:00;97255.03;;;13.97;24.54
45129;BME280;35512;56.312;101.728;2023-04-24T01:38:30;97250.34;;;14.74;24.11
45129;BME280;35512;56.312;101.728;2023-04-24T01:41:00;97246.78;;;14.70;22.51
45129;BME280;35512;56.312;101.728;2023-04-24T01:43:29;97249.25;;;14.52;22.14
45129;BME280;35512;56.312;101.728;2023-04-24T01:45:58;97243.00;;;14.78;22.19
45129;BME280;35512;56.312;101.728;2023-04-24T01:48:28;97244.09;;;15.04;21.94
45129;BME280;35512;56.312;101.728;2023-04-24T01:50:57;97245.16;;;14.96;21.59
45129;BME280;35512;56.312;101.728;2023-04-24T01:53:26;97236.31;;;15.06;21.35
45129;BME280;35512;56.312;101.728;2023-04-24T01:55:55;97243.63;;;15.77;21.81
45129;BME280;35512;56.312;101.728;2023-04-24T01:58:26;97245.94;;;16.23;20.74
45129;BME280;35512;56.312;101.728;2023-04-24T02:00:57;97239.97;;;16.73;20.07
45129;BME280;35512;56.312;101.728;2023-04-24T02:03:28;97251.50;;;17.26;20.35
45129;BME280;35512;56.312;101.728;2023-04-24T02:05:59;97244.56;;;17.68;19.74
45129;BME280;35512;56.312;101.728;2023-04-24T02:08:28;97245.31;;;17.65;19.47
45129;BME280;35512;56.312;101.728;2023-04-24T02:10:57;97236.75;;;17.74;19.37
45129;BME280;35512;56.312;101.728;2023-04-24T02:13:26;97235.94;;;17.55;18.42
45129;BME280;35512;56.312;101.728;2023-04-24T02:15:55;97230.88;;;17.47;18.89
45129;BME280;35512;56.312;101.728;2023-04-24T02:18:44;97225.41;;;17.61;18.51
45129;BME280;35512;56.312;101.728;2023-04-24T02:21:13;97220.75;;;17.62;18.60
45129;BME280;35512;56.312;101.728;2023-04-24T02:23:44;97219.22;;;18.04;18.69
45129;BME280;35512;56.312;101.728;2023-04-24T02:26:13;97219.06;;;18.62;18.84
45129;BME280;35512;56.312;101.728;2023-04-24T02:28:42;97216.03;;;19.34;18.23
45129;BME280;35512;56.312;101.728;2023-04-24T02:31:11;97215.03;;;19.02;17.79
45129;BME280;35512;56.312;101.728;2023-04-24T02:33:41;97194.50;;;18.54;16.38
45129;BME280;35512;56.312;101.728;2023-04-24T02:36:10;97208.25;;;18.15;16.94
45129;BME280;35512;56.312;101.728;2023-04-24T02:38:39;97209.81;;;18.23;16.76
45129;BME280;35512;56.312;101.728;2023-04-24T02:41:08;97203.56;;;18.19;16.81
45129;BME280;35512;56.312;101.728;2023-04-24T02:43:38;97197.72;;;17.88;15.88
45129;BME280;35512;56.312;101.728;2023-04-24T02:46:06;97198.09;;;17.79;16.42
45129;BME280;35512;56.312;101.728;2023-04-24T02:48:35;97193.38;;;18.27;16.35
45129;BME280;35512;56.312;101.728;2023-04-24T02:51:04;97186.25;;;18.62;15.98
45129;BME280;35512;56.312;101.728;2023-04-24T02:53:35;97191.59;;;18.87;16.18
45129;BME280;35512;56.312;101.728;2023-04-24T02:56:03;97180.41;;;19.37;16.48
45129;BME280;35512;56.312;101.728;2023-04-24T02:58:33;97161.78;;;19.63;16.25
45129;BME280;35512;56.312;101.728;2023-04-24T03:01:02;97175.47;;;20.12;15.58
45129;BME280;35512;56.312;101.728;2023-04-24T03:03:32;97170.66;;;20.58;15.46
45129;BME280;35512;56.312;101.728;2023-04-24T03:06:02;97160.59;;;20.82;14.57
45129;BME280;35512;56.312;101.728;2023-04-24T03:08:32;97154.88;;;20.35;14.93
45129;BME280;35512;56.312;101.728;2023-04-24T03:11:01;97150.53;;;20.37;15.23
45129;BME280;35512;56.312;101.728;2023-04-24T03:13:30;97148.75;;;20.89;15.22
45129;BME280;35512;56.312;101.728;2023-04-24T03:15:58;97154.63;;;20.87;14.36
45129;BME280;35512;56.312;101.728;2023-04-24T03:18:28;97157.06;;;20.82;14.29
45129;BME280;35512;56.312;101.728;2023-04-24T03:20:58;97151.22;;;20.80;14.81
45129;BME280;35512;56.312;101.728;2023-04-24T03:23:28;97142.88;;;20.87;14.47
45129;BME280;35512;56.312;101.728;2023-04-24T03:25:57;97150.38;;;21.37;14.65
45129;BME280;35512;56.312;101.728;2023-04-24T03:28:26;97148.00;;;22.10;14.62
45129;BME280;35512;56.312;101.728;2023-04-24T03:30:59;97142.31;;;22.21;13.61
45129;BME280;35512;56.312;101.728;2023-04-24T03:33:32;97125.50;;;21.72;13.54
45129;BME280;35512;56.312;101.728;2023-04-24T03:36:02;97131.69;;;21.56;12.98
45129;BME280;35512;56.312;101.728;2023-04-24T03:38:40;97133.16;;;21.60;13.65
45129;BME280;35512;56.312;101.728;2023-04-24T03:41:38;97134.63;;;22.53;13.78
45129;BME280;35512;56.312;101.728;2023-04-24T03:44:14;97126.69;;;23.11;13.66
45129;BME280;35512;56.312;101.728;2023-04-24T03:46:43;97125.16;;;23.27;12.79
45129;BME280;35512;56.312;101.728;2023-04-24T03:49:13;97117.28;;;23.09;13.17
45129;BME280;35512;56.312;101.728;2023-04-24T03:51:45;97118.41;;;22.95;12.51
45129;BME280;35512;56.312;101.728;2023-04-24T03:54:26;97123.91;;;22.58;12.79
45129;BME280;35512;56.312;101.728;2023-04-24T03:56:55;97108.59;;;22.37;12.40
45129;BME280;35512;56.312;101.728;2023-04-24T03:59:27;97109.56;;;22.07;12.40
45129;BME280;35512;56.312;101.728;2023-04-24T04:02:26;97090.59;;;22.33;12.89
45129;BME280;35512;56.312;101.728;2023-04-24T04:04:57;97088.53;;;22.17;12.16
45129;BME280;35512;56.312;101.728;2023-04-24T04:07:27;97086.81;;;21.63;12.60
45129;BME280;35512;56.312;101.728;2023-04-24T04:09:56;97094.88;;;21.93;12.66
45129;BME280;35512;56.312;101.728;2023-04-24T04:12:25;97085.63;;;22.64;12.93
45129;BME280;35512;56.312;101.728;2023-04-24T04:14:53;97083.66;;;23.18;12.57
45129;BME280;35512;56.312;101.728;2023-04-24T04:17:23;97081.66;;;23.02;12.34
45129;BME280;35512;56.312;101.728;2023-04-24T04:19:52;97064.56;;;22.74;12.46
45129;BME280;35512;56.312;101.728;2023-04-24T04:22:21;97066.78;;;22.99;12.45
45129;BME280;35512;56.312;101.728;2023-04-24T04:24:52;97060.66;;;23.24;12.28
45129;BME280;35512;56.312;101.728;2023-04-24T04:27:24;97059.38;;;23.45;12.35
45129;BME280;35512;56.312;101.728;2023-04-24T04:30:03;97048.03;;;23.73;11.95
45129;BME280;35512;56.312;101.728;2023-04-24T04:32:45;97047.75;;;24.13;12.37
45129;BME280;35512;56.312;101.728;2023-04-24T04:35:14;97044.41;;;25.12;12.61
45129;BME280;35512;56.312;101.728;2023-04-24T04:37:44;97041.47;;;25.54;11.92
45129;BME280;35512;56.312;101.728;2023-04-24T04:40:25;97035.63;;;25.39;12.06
45129;BME280;35512;56.312;101.728;2023-04-24T04:43:01;97035.41;;;25.21;11.98
45129;BME280;35512;56.312;101.728;2023-04-24T04:45:38;97035.56;;;25.17;12.15
45129;BME280;35512;56.312;101.728;2023-04-24T04:48:25;97027.75;;;25.51;11.86
45129;BME280;35512;56.312;101.728;2023-04-24T04:50:59;97025.78;;;25.51;11.70
45129;BME280;35512;56.312;101.728;2023-04-24T04:53:29;97023.66;;;25.55;12.01
45129;BME280;35512;56.312;101.728;2023-04-24T04:55:58;97024.91;;;25.28;12.14
45129;BME280;35512;56.312;101.728;2023-04-24T04:58:35;97016.84;;;25.34;11.96
45129;BME280;35512;56.312;101.728;2023-04-24T05:01:06;97002.94;;;25.60;11.61
45129;BME280;35512;56.312;101.728;2023-04-24T05:03:40;97009.81;;;25.55;11.69
45129;BME280;35512;56.312;101.728;2023-04-24T05:06:13;96997.59;;;25.65;11.69
45129;BME280;35512;56.312;101.728;2023-04-24T05:08:44;96988.00;;;25.79;11.45
45129;BME280;35512;56.312;101.728;2023-04-24T05:11:25;96995.09;;;25.58;11.52
45129;BME280;35512;56.312;101.728;2023-04-24T05:13:56;96980.16;;;25.34;11.34
45129;BME280;35512;56.312;101.728;2023-04-24T05:16:33;96969.75;;;25.25;11.46
45129;BME280;35512;56.312;101.728;2023-04-24T05:19:02;96971.63;;;25.28;11.66
45129;BME280;35512;56.312;101.728;2023-04-24T05:21:37;96964.66;;;25.23;11.53
45129;BME280;35512;56.312;101.728;2023-04-24T05:24:06;96950.63;;;25.30;11.54
45129;BME280;35512;56.312;101.728;2023-04-24T05:26:53;96950.72;;;25.40;11.31
45129;BME280;35512;56.312;101.728;2023-04-24T05:29:26;96946.75;;;25.28;11.15
45129;BME280;35512;56.312;101.728;2023-04-24T05:31:55;96931.34;;;24.31;11.13
45129;BME280;35512;56.312;101.728;2023-04-24T05:34:24;96932.19;;;23.89;11.54
45129;BME280;35512;56.312;101.728;2023-04-24T05:36:56;96924.53;;;23.38;11.22
45129;BME280;35512;56.312;101.728;2023-04-24T05:39:26;96912.38;;;22.90;11.67
45129;BME280;35512;56.312;101.728;2023-04-24T05:41:55;96904.06;;;22.60;11.58
45129;BME280;35512;56.312;101.728;2023-04-24T05:44:26;96896.88;;;22.14;11.61
45129;BME280;35512;56.312;101.728;2023-04-24T05:46:55;96907.31;;;21.45;11.80
45129;BME280;35512;56.312;101.728;2023-04-24T05:49:25;96907.28;;;21.05;12.07
45129;BME280;35512;56.312;101.728;2023-04-24T05:51:57;96895.00;;;20.90;12.07
45129;BME280;35512;56.312;101.728;2023-04-24T05:54:26;96888.66;;;21.37;12.33
45129;BME280;35512;56.312;101.728;2023-04-24T05:56:56;96896.44;;;21.18;12.39
45129;BME280;35512;56.312;101.728;2023-04-24T05:59:37;96886.88;;;20.59;12.16
45129;BME280;35512;56.312;101.728;2023-04-24T06:02:11;96887.22;;;20.61;12.65
45129;BME280;35512;56.312;101.728;2023-04-24T06:04:40;96881.16;;;20.97;12.68
45129;BME280;35512;56.312;101.728;2023-04-24T06:07:13;96861.94;;;20.97;12.33
45129;BME280;35512;56.312;101.728;2023-04-24T06:09:43;96862.97;;;20.59;12.61
45129;BME280;35512;56.312;101.728;2023-04-24T06:12:14;96854.66;;;20.87;12.50
45129;BME280;35512;56.312;101.728;2023-04-24T06:14:59;96854.41;;;21.21;12.43
45129;BME280;35512;56.312;101.728;2023-04-24T06:17:48;96851.16;;;20.39;12.41
45129;BME280;35512;56.312;101.728;2023-04-24T06:20:19;96845.28;;;19.86;12.88
45129;BME280;35512;56.312;101.728;2023-04-24T06:22:48;96850.03;;;19.51;12.81
45129;BME280;35512;56.312;101.728;2023-04-24T06:25:18;96831.41;;;19.38;13.33
45129;BME280;35512;56.312;101.728;2023-04-24T06:27:47;96831.03;;;19.67;13.57
45129;BME280;35512;56.312;101.728;2023-04-24T06:30:17;96821.81;;;19.85;13.29
45129;BME280;35512;56.312;101.728;2023-04-24T06:32:46;96817.59;;;19.76;13.36
45129;BME280;35512;56.312;101.728;2023-04-24T06:35:15;96814.38;;;19.54;13.11
45129;BME280;35512;56.312;101.728;2023-04-24T06:37:45;96802.53;;;19.65;13.53
45129;BME280;35512;56.312;101.728;2023-04-24T06:40:15;96801.97;;;20.04;13.31
45129;BME280;35512;56.312;101.728;2023-04-24T06:42:44;96794.16;;;20.26;13.20
45129;BME280;35512;56.312;101.728;2023-04-24T06:45:13;96780.44;;;20.26;12.74
45129;BME280;35512;56.312;101.728;2023-04-24T06:47:46;96788.88;;;19.61;13.33
45129;BME280;35512;56.312;101.728;2023-04-24T06:50:15;96780.56;;;20.19;13.49
45129;BME280;35512;56.312;101.728;2023-04-24T06:52:45;96768.19;;;20.55;13.04
45129;BME280;35512;56.312;101.728;2023-04-24T06:55:14;96771.66;;;20.59;13.06
45129;BME280;35512;56.312;101.728;2023-04-24T06:57:46;96776.44;;;20.31;13.19
45129;BME280;35512;56.312;101.728;2023-04-24T07:00:16;96761.66;;;20.25;13.29
45129;BME280;35512;56.312;101.728;2023-04-24T07:02:45;96753.94;;;19.96;13.16
45129;BME280;35512;56.312;101.728;2023-04-24T07:05:14;96755.28;;;19.57;13.33
45129;BME280;35512;56.312;101.728;2023-04-24T07:07:43;96755.13;;;19.68;13.50
45129;BME280;35512;56.312;101.728;2023-04-24T07:10:13;96742.00;;;20.06;13.33
45129;BME280;35512;56.312;101.728;2023-04-24T07:12:42;96731.31;;;20.36;13.34
45129;BME280;35512;56.312;101.728;2023-04-24T07:15:11;96724.03;;;20.49;13.20
45129;BME280;35512;56.312;101.728;2023-04-24T07:17:41;96714.25;;;20.24;13.43
45129;BME280;35512;56.312;101.728;2023-04-24T07:20:12;96699.69;;;20.07;13.46
45129;BME280;35512;56.312;101.728;2023-04-24T07:22:43;96704.41;;;20.51;14.05
45129;BME280;35512;56.312;101.728;2023-04-24T07:25:12;96707.41;;;20.97;13.42
45129;BME280;35512;56.312;101.728;2023-04-24T07:27:41;96694.44;;;20.81;13.43
45129;BME280;35512;56.312;101.728;2023-04-24T07:30:10;96699.56;;;20.99;13.38
45129;BME280;35512;56.312;101.728;2023-04-24T07:32:40;96692.00;;;21.39;13.77
45129;BME280;35512;56.312;101.728;2023-04-24T07:35:09;96690.38;;;21.91;13.78
45129;BME280;35512;56.312;101.728;2023-04-24T07:37:38;96684.97;;;22.34;13.68
45129;BME280;35512;56.312;101.728;2023-04-24T07:40:07;96676.13;;;22.42;13.64
45129;BME280;35512;56.312;101.728;2023-04-24T07:42:37;96664.03;;;22.23;13.60
45129;BME280;35512;56.312;101.728;2023-04-24T07:45:07;96662.47;;;21.76;13.78
45129;BME280;35512;56.312;101.728;2023-04-24T07:47:37;96663.38;;;21.04;13.48
45129;BME280;35512;56.312;101.728;2023-04-24T07:50:08;96650.63;;;20.13;13.31
45129;BME280;35512;56.312;101.728;2023-04-24T07:52:37;96645.34;;;19.04;14.15
45129;BME280;35512;56.312;101.728;2023-04-24T07:55:07;96651.34;;;18.61;14.28
45129;BME280;35512;56.312;101.728;2023-04-24T07:57:37;96633.16;;;18.12;14.57
45129;BME280;35512;56.312;101.728;2023-04-24T08:00:07;96635.69;;;17.92;14.71
45129;BME280;35512;56.312;101.728;2023-04-24T08:02:41;96629.41;;;17.95;14.97
45129;BME280;35512;56.312;101.728;2023-04-24T08:05:10;96622.78;;;17.96;14.83
45129;BME280;35512;56.312;101.728;2023-04-24T08:07:40;96622.28;;;17.63;14.67
45129;BME280;35512;56.312;101.728;2023-04-24T08:10:10;96605.34;;;16.78;15.06
45129;BME280;35512;56.312;101.728;2023-04-24T08:12:40;96607.66;;;15.80;15.50
45129;BME280;35512;56.312;101.728;2023-04-24T08:15:09;96595.59;;;14.80;15.85
45129;BME280;35512;56.312;101.728;2023-04-24T08:17:38;96600.69;;;13.97;16.46
45129;BME280;35512;56.312;101.728;2023-04-24T08:20:09;96600.50;;;13.64;17.16
45129;BME280;35512;56.312;101.728;2023-04-24T08:22:42;96590.84;;;13.71;17.01
45129;BME280;35512;56.312;101.728;2023-04-24T08:25:12;96586.97;;;13.68;17.09
45129;BME280;35512;56.312;101.728;2023-04-24T08:27:43;96584.72;;;13.29;17.65
45129;BME280;35512;56.312;101.728;2023-04-24T08:30:12;96578.81;;;13.16;17.92
45129;BME280;35512;56.312;101.728;2023-04-24T08:32:41;96572.69;;;13.23;17.49
45129;BME280;35512;56.312;101.728;2023-04-24T08:35:10;96578.28;;;13.44;17.44
45129;BME280;35512;56.312;101.728;2023-04-24T08:37:40;96568.06;;;13.27;17.52
45129;BME280;35512;56.312;101.728;2023-04-24T08:40:13;96563.44;;;13.34;17.98
45129;BME280;35512;56.312;101.728;2023-04-24T08:42:44;96559.22;;;13.37;17.90
45129;BME280;35512;56.312;101.728;2023-04-24T08:45:13;96557.94;;;13.24;17.92
45129;BME280;35512;56.312;101.728;2023-04-24T08:47:42;96548.09;;;13.01;18.03
45129;BME280;35512;56.312;101.728;2023-04-24T08:50:13;96547.97;;;12.83;18.01
45129;BME280;35512;56.312;101.728;2023-04-24T08:52:45;96537.47;;;12.78;18.13
45129;BME280;35512;56.312;101.728;2023-04-24T08:55:15;96538.97;;;12.75;18.42
45129;BME280;35512;56.312;101.728;2023-04-24T08:57:52;96529.50;;;12.55;18.34
45129;BME280;35512;56.312;101.728;2023-04-24T09:00:23;96524.75;;;12.44;18.49
45129;BME280;35512;56.312;101.728;2023-04-24T09:02:54;96522.88;;;12.11;18.87
45129;BME280;35512;56.312;101.728;2023-04-24T09:05:24;96519.34;;;12.07;18.71
45129;BME280;35512;56.312;101.728;2023-04-24T09:07:56;96513.44;;;12.01;18.86
45129;BME280;35512;56.312;101.728;2023-04-24T09:10:26;96510.03;;;12.04;18.98
45129;BME280;35512;56.312;101.728;2023-04-24T09:12:56;96493.81;;;12.08;19.14
45129;BME280;35512;56.312;101.728;2023-04-24T09:15:27;96490.06;;;12.20;18.96
45129;BME280;35512;56.312;101.728;2023-04-24T09:17:57;96495.59;;;12.30;19.25
45129;BME280;35512;56.312;101.728;2023-04-24T09:20:27;96477.34;;;12.24;18.90
45129;BME280;35512;56.312;101.728;2023-04-24T09:22:57;96477.72;;;12.22;19.33
45129;BME280;35512;56.312;101.728;2023-04-24T09:25:34;96474.78;;;12.00;19.41
45129;BME280;35512;56.312;101.728;2023-04-24T09:28:05;96469.47;;;11.77;19.43
45129;BME280;35512;56.312;101.728;2023-04-24T09:30:36;96471.69;;;11.68;19.62
45129;BME280;35512;56.312;101.728;2023-04-24T09:33:15;96460.25;;;11.48;20.00
45129;BME280;35512;56.312;101.728;2023-04-24T09:35:53;96461.03;;;11.22;19.81
45129;BME280;35512;56.312;101.728;2023-04-24T09:38:36;96453.81;;;11.03;20.04
45129;BME280;35512;56.312;101.728;2023-04-24T09:41:07;96456.34;;;10.88;20.51
45129;BME280;35512;56.312;101.728;2023-04-24T09:43:39;96452.88;;;10.64;20.55
45129;BME280;35512;56.312;101.728;2023-04-24T09:46:09;96444.91;;;10.48;20.56
45129;BME280;35512;56.312;101.728;2023-04-24T09:48:38;96441.00;;;10.46;20.62
45129;BME280;35512;56.312;101.728;2023-04-24T09:51:08;96436.50;;;10.54;20.72
45129;BME280;35512;56.312;101.728;2023-04-24T09:53:39;96438.84;;;10.55;20.65
45129;BME280;35512;56.312;101.728;2023-04-24T09:56:13;96427.25;;;10.55;20.74
45129;BME280;35512;56.312;101.728;2023-04-24T09:58:42;96429.88;;;10.51;20.71
45129;BME280;35512;56.312;101.728;2023-04-24T10:01:12;96427.09;;;10.44;20.84
45129;BME280;35512;56.312;101.728;2023-04-24T10:03:43;96418.97;;;10.44;20.78
45129;BME280;35512;56.312;101.728;2023-04-24T10:06:13;96422.13;;;10.46;20.86
45129;BME280;35512;56.312;101.728;2023-04-24T10:08:42;96410.88;;;10.44;21.21
45129;BME280;35512;56.312;101.728;2023-04-24T10:11:11;96400.91;;;10.48;20.84
45129;BME280;35512;56.312;101.728;2023-04-24T10:13:42;96404.06;;;10.50;20.77
45129;BME280;35512;56.312;101.728;2023-04-24T10:16:10;96406.38;;;10.52;20.83
45129;BME280;35512;56.312;101.728;2023-04-24T10:18:40;96403.75;;;10.55;20.92
45129;BME280;35512;56.312;101.728;2023-04-24T10:21:09;96395.94;;;10.50;20.89
45129;BME280;35512;56.312;101.728;2023-04-24T10:23:39;96389.28;;;10.44;21.17
45129;BME280;35512;56.312;101.728;2023-04-24T10:26:09;96387.94;;;10.34;21.13
45129;BME280;35512;56.312;101.728;2023-04-24T10:28:39;96389.63;;;10.19;21.13
45129;BME280;35512;56.312;101.728;2023-04-24T10:31:10;96380.03;;;9.98;21.08
45129;BME280;35512;56.312;101.728;2023-04-24T10:33:43;96387.22;;;9.91;21.37
45129;BME280;35512;56.312;101.728;2023-04-24T10:36:13;96373.63;;;9.84;21.40
45129;BME280;35512;56.312;101.728;2023-04-24T10:38:45;96369.16;;;9.72;21.42
45129;BME280;35512;56.312;101.728;2023-04-24T10:41:18;96369.03;;;9.64;21.62
45129;BME280;35512;56.312;101.728;2023-04-24T10:44:24;96377.78;;;9.58;21.57
45129;BME280;35512;56.312;101.728;2023-04-24T10:46:55;96362.19;;;9.47;21.58
45129;BME280;35512;56.312;101.728;2023-04-24T10:49:29;96364.53;;;9.49;21.66
45129;BME280;35512;56.312;101.728;2023-04-24T10:52:02;96364.69;;;9.37;21.66
45129;BME280;35512;56.312;101.728;2023-04-24T10:54:44;96360.28;;;9.28;21.93
45129;BME280;35512;56.312;101.728;2023-04-24T10:59:52;96349.69;;;9.20;21.74
45129;BME280;35512;56.312;101.728;2023-04-24T11:02:40;96350.41;;;9.17;22.30
45129;BME280;35512;56.312;101.728;2023-04-24T11:05:17;96346.78;;;9.09;22.02
45129;BME280;35512;56.312;101.728;2023-04-24T11:08:12;96341.28;;;9.02;22.06
45129;BME280;35512;56.312;101.728;2023-04-24T11:10:47;96340.69;;;8.92;22.39
45129;BME280;35512;56.312;101.728;2023-04-24T11:13:21;96337.69;;;8.78;22.15
45129;BME280;35512;56.312;101.728;2023-04-24T11:16:28;96321.75;;;8.69;22.03
45129;BME280;35512;56.312;101.728;2023-04-24T11:21:41;96314.28;;;8.62;22.47
45129;BME280;35512;56.312;101.728;2023-04-24T11:27:06;96296.28;;;8.47;22.36
45129;BME280;35512;56.312;101.728;2023-04-24T11:29:41;96286.19;;;8.44;22.59
45129;BME280;35512;56.312;101.728;2023-04-24T11:32:28;96283.06;;;8.42;22.48
45129;BME280;35512;56.312;101.728;2023-04-24T11:35:00;96268.75;;;8.38;22.56
45129;BME280;35512;56.312;101.728;2023-04-24T11:37:39;96265.97;;;8.34;22.79
45129;BME280;35512;56.312;101.728;2023-04-24T11:40:10;96264.69;;;8.28;22.64
45129;BME280;35512;56.312;101.728;2023-04-24T11:42:44;96261.91;;;8.24;22.94
45129;BME280;35512;56.312;101.728;2023-04-24T11:45:15;96259.50;;;8.19;22.57
45129;BME280;35512;56.312;101.728;2023-04-24T11:47:45;96252.03;;;8.12;23.34
45129;BME280;35512;56.312;101.728;2023-04-24T11:50:16;96249.13;;;8.02;22.82
45129;BME280;35512;56.312;101.728;2023-04-24T11:52:47;96248.53;;;7.92;23.38
45129;BME280;35512;56.312;101.728;2023-04-24T11:57:52;96240.84;;;7.75;23.32
45129;BME280;35512;56.312;101.728;2023-04-24T12:00:24;96245.19;;;7.64;23.21
45129;BME280;35512;56.312;101.728;2023-04-24T12:03:10;96234.84;;;7.50;23.46
45129;BME280;35512;56.312;101.728;2023-04-24T12:05:40;96231.88;;;7.39;23.38
45129;BME280;35512;56.312;101.728;2023-04-24T12:08:10;96223.13;;;7.26;23.78
45129;BME280;35512;56.312;101.728;2023-04-24T12:10:39;96213.41;;;7.05;23.80
45129;BME280;35512;56.312;101.728;2023-04-24T12:13:09;96218.00;;;7.05;24.01
45129;BME280;35512;56.312;101.728;2023-04-24T12:15:40;96215.34;;;6.92;23.93
45129;BME280;35512;56.312;101.728;2023-04-24T12:18:11;96214.06;;;6.86;23.73
45129;BME280;35512;56.312;101.728;2023-04-24T12:20:41;96211.50;;;6.77;24.22
45129;BME280;35512;56.312;101.728;2023-04-24T12:23:11;96212.78;;;6.68;24.10
45129;BME280;35512;56.312;101.728;2023-04-24T12:25:39;96206.78;;;6.58;24.26
45129;BME280;35512;56.312;101.728;2023-04-24T12:28:11;96202.34;;;6.50;24.19
45129;BME280;35512;56.312;101.728;2023-04-24T12:30:51;96195.78;;;6.35;24.09
45129;BME280;35512;56.312;101.728;2023-04-24T12:33:21;96198.72;;;6.30;24.16
45129;BME280;35512;56.312;101.728;2023-04-24T12:35:53;96193.81;;;6.20;24.32
45129;BME280;35512;56.312;101.728;2023-04-24T12:38:26;96185.47;;;6.09;24.33
45129;BME280;35512;56.312;101.728;2023-04-24T12:41:09;96181.69;;;5.98;24.30
45129;BME280;35512;56.312;101.728;2023-04-24T12:43:38;96183.34;;;5.90;24.37
45129;BME280;35512;56.312;101.728;2023-04-24T12:46:08;96175.31;;;5.78;24.44
45129;BME280;35512;56.312;101.728;2023-04-24T12:48:37;96175.66;;;5.76;24.64
45129;BME280;35512;56.312;101.728;2023-04-24T12:51:07;96181.25;;;5.71;24.44
45129;BME280;35512;56.312;101.728;2023-04-24T12:53:35;96175.00;;;5.67;24.28
45129;BME280;35512;56.312;101.728;2023-04-24T12:56:04;96171.44;;;5.63;24.63
45129;BME280;35512;56.312;101.728;2023-04-24T12:58:33;96161.28;;;5.56;24.93
45129;BME280;35512;56.312;101.728;2023-04-24T13:01:03;96162.97;;;5.61;25.33
45129;BME280;35512;56.312;101.728;2023-04-24T13:03:32;96162.16;;;5.60;24.67
45129;BME280;35512;56.312;101.728;2023-04-24T13:06:01;96167.09;;;5.58;24.39
45129;BME280;35512;56.312;101.728;2023-04-24T13:08:30;96150.91;;;5.54;25.09
45129;BME280;35512;56.312;101.728;2023-04-24T13:10:59;96152.00;;;5.53;24.88
45129;BME280;35512;56.312;101.728;2023-04-24T13:13:28;96145.75;;;5.49;25.06
45129;BME280;35512;56.312;101.728;2023-04-24T13:15:57;96146.44;;;5.46;24.78